Time;durP1;ratioP1;P1;durP2;ratioP2;P2;SDS_P1;SDS_P2;PMS_P1;PMS_P2;Temp;Humidity;BMP_temperature;BMP_pressure;BME280_temperature;BME280_humidity;BME280_pressure;Samples;Min_cycle;Max_cycle;Signal;HPM_P1;HPM_P2
2023/05/22 00:00:43;;;;;;;12.00;7.40;;;;;;;10.61;73.11;100963.92;102416;279;114100;-54
2023/05/22 00:03:35;;;;;;;12.70;7.80;;;;;;;10.57;73.09;100964.68;102310;279;96333;-54
2023/05/22 00:06:17;;;;;;;11.20;7.40;;;;;;;10.54;73.16;100964.48;102429;280;98018;-54
2023/05/22 00:08:57;;;;;;;11.40;7.60;;;;;;;10.52;73.33;100960.25;102339;280;120597;-54
2023/05/22 00:11:35;;;;;;;10.70;6.80;;;;;;;10.48;73.41;100953.88;102393;279;104765;-53
2023/05/22 00:14:17;;;;;;;9.20;6.70;;;;;;;10.47;73.59;100954.35;102340;279;116243;-55
2023/05/22 00:16:57;;;;;;;11.50;6.70;;;;;;;10.43;73.58;100958.63;102352;280;94894;-56
2023/05/22 00:19:38;;;;;;;11.60;6.90;;;;;;;10.39;73.81;100957.55;102377;279;96879;-55
2023/05/22 00:22:13;;;;;;;14.80;7.20;;;;;;;10.37;73.76;100954.23;102354;279;120984;-52
2023/05/22 00:24:52;;;;;;;15.00;7.20;;;;;;;10.35;73.80;100954.35;102194;270;106830;-52
2023/05/22 00:27:30;;;;;;;11.00;6.50;;;;;;;10.31;73.98;100949.53;102346;280;114407;-54
2023/05/22 00:30:14;;;;;;;12.50;6.40;;;;;;;10.27;74.03;100946.02;102214;281;95929;-53
2023/05/22 00:32:49;;;;;;;11.90;7.30;;;;;;;10.23;74.15;100947.73;102442;280;98073;-52
2023/05/22 00:35:24;;;;;;;11.80;6.60;;;;;;;10.20;74.13;100944.83;102399;280;120051;-54
2023/05/22 00:38:03;;;;;;;11.90;7.10;;;;;;;10.16;74.31;100946.19;102417;279;105865;-54
2023/05/22 00:40:45;;;;;;;11.10;6.90;;;;;;;10.13;74.47;100947.61;102417;268;113023;-54
2023/05/22 00:43:25;;;;;;;9.70;6.70;;;;;;;10.12;74.48;100946.63;102439;279;95155;-52
2023/05/22 00:46:06;;;;;;;12.70;6.50;;;;;;;10.12;74.48;100948.34;102487;279;97876;-51
2023/05/22 00:48:56;;;;;;;10.10;6.20;;;;;;;10.10;74.64;100951.38;102348;279;120773;-55
2023/05/22 00:51:31;;;;;;;12.40;6.80;;;;;;;10.07;74.65;100946.27;102266;281;105412;-53
2023/05/22 00:54:14;;;;;;;10.00;6.30;;;;;;;10.02;74.73;100943.20;102367;280;114030;-54
2023/05/22 00:56:51;;;;;;;13.30;6.30;;;;;;;9.97;74.71;100943.41;102343;281;95850;-55
2023/05/22 00:59:32;;;;;;;9.70;6.40;;;;;;;9.91;74.95;100944.36;102362;292;98596;-54
2023/05/22 01:02:15;;;;;;;8.90;6.10;;;;;;;9.88;74.89;100941.55;102316;281;120109;-56
2023/05/22 01:05:04;;;;;;;8.70;5.90;;;;;;;9.89;74.92;100946.89;102333;281;104494;-56
2023/05/22 01:07:41;;;;;;;9.00;6.10;;;;;;;9.88;74.97;100948.13;102332;280;114617;-52
2023/05/22 01:10:19;;;;;;;7.80;6.20;;;;;;;9.85;75.08;100943.02;102370;280;95190;-52
2023/05/22 01:13:10;;;;;;;9.20;5.20;;;;;;;9.83;75.17;100944.50;102384;280;96878;-53
2023/05/22 01:15:57;;;;;;;10.90;6.00;;;;;;;9.81;75.10;100945.41;102357;272;121044;-53
2023/05/22 01:18:45;;;;;;;10.30;6.20;;;;;;;9.77;75.37;100946.28;102368;280;105971;-55
2023/05/22 01:21:39;;;;;;;10.70;5.80;;;;;;;9.72;75.37;100947.45;102339;280;114193;-55
2023/05/22 01:24:50;;;;;;;10.70;5.60;;;;;;;9.64;75.52;100953.10;102380;280;95742;-53
2023/05/22 01:28:03;;;;;;;7.80;5.40;;;;;;;9.61;75.62;100949.57;102398;280;98177;-53
2023/05/22 01:31:05;;;;;;;10.60;6.00;;;;;;;9.58;75.54;100947.90;102419;280;121081;-53
2023/05/22 01:33:46;;;;;;;9.90;6.30;;;;;;;9.58;75.63;100946.13;102489;280;105845;-54
2023/05/22 01:36:30;;;;;;;11.40;6.00;;;;;;;9.55;75.78;100949.60;102447;280;112416;-53
2023/05/22 01:39:11;;;;;;;10.30;6.40;;;;;;;9.53;75.91;100950.45;102413;281;93362;-57
2023/05/22 01:41:48;;;;;;;9.70;6.30;;;;;;;9.50;75.95;100950.92;102393;284;98686;-53
2023/05/22 01:44:25;;;;;;;9.20;6.40;;;;;;;9.45;76.01;100943.23;102405;281;119711;-52
2023/05/22 01:47:06;;;;;;;9.60;6.10;;;;;;;9.39;76.12;100945.86;102386;281;104455;-56
2023/05/22 01:49:44;;;;;;;10.60;5.90;;;;;;;9.35;76.02;100943.58;102356;280;114562;-56
2023/05/22 01:52:27;;;;;;;9.70;6.20;;;;;;;9.33;76.10;100946.02;102356;280;95441;-53
2023/05/22 01:55:12;;;;;;;9.00;5.80;;;;;;;9.28;76.24;100943.63;102335;281;96519;-53
2023/05/22 01:58:00;;;;;;;8.80;5.90;;;;;;;9.26;76.29;100946.09;102385;280;120499;-56
2023/05/22 02:00:53;;;;;;;10.20;5.80;;;;;;;9.24;76.35;100944.08;102352;280;106048;-56
2023/05/22 02:03:34;;;;;;;10.40;5.20;;;;;;;9.21;76.55;100945.71;102347;281;114163;-62
2023/05/22 02:06:15;;;;;;;7.50;5.90;;;;;;;9.18;76.40;100946.79;102390;280;93216;-53
2023/05/22 02:08:57;;;;;;;8.00;6.30;;;;;;;9.14;76.60;100947.59;102370;280;98603;-56
2023/05/22 02:11:33;;;;;;;9.80;5.90;;;;;;;9.11;76.72;100956.49;102341;280;119932;-54
2023/05/22 02:14:17;;;;;;;10.50;5.60;;;;;;;9.09;76.64;100953.90;102381;280;106124;-55
2023/05/22 02:17:00;;;;;;;9.40;5.80;;;;;;;9.04;76.77;100953.21;102427;280;113172;-53
2023/05/22 02:19:42;;;;;;;12.20;5.80;;;;;;;8.98;76.90;100951.27;102377;281;96290;-53
2023/05/22 02:22:22;;;;;;;8.60;5.70;;;;;;;8.96;77.13;100950.13;102362;280;96818;-56
2023/05/22 02:25:13;;;;;;;9.50;5.80;;;;;;;8.97;77.20;100951.98;102375;280;121034;-56
2023/05/22 02:27:50;;;;;;;7.10;5.60;;;;;;;8.95;77.10;100951.69;102396;280;105093;-56
2023/05/22 02:30:26;;;;;;;11.50;5.90;;;;;;;8.93;77.44;100947.19;102197;269;116007;-57
2023/05/22 02:33:05;;;;;;;9.40;6.10;;;;;;;8.91;77.51;100944.87;102377;280;96949;-53
2023/05/22 02:35:51;;;;;;;8.40;5.40;;;;;;;8.93;77.34;100950.64;102384;280;95464;-53
2023/05/22 02:38:43;;;;;;;9.60;5.60;;;;;;;8.93;77.46;100943.29;102365;280;121579;-53
2023/05/22 02:41:21;;;;;;;8.30;5.80;;;;;;;8.96;77.60;100942.95;102377;280;104826;-53
2023/05/22 02:44:03;;;;;;;8.30;5.70;;;;;;;8.97;77.61;100943.33;102348;280;114824;-55
2023/05/22 02:46:40;;;;;;;10.90;5.40;;;;;;;8.97;77.50;100942.79;102359;280;96292;-56
2023/05/22 02:49:15;;;;;;;9.30;5.00;;;;;;;8.97;77.60;100942.41;102363;280;97569;-57
2023/05/22 02:51:55;;;;;;;9.00;5.40;;;;;;;8.98;77.69;100937.87;102347;281;119462;-55
2023/05/22 02:54:38;;;;;;;8.50;5.40;;;;;;;9.01;77.63;100934.30;102347;280;106171;-54
2023/05/22 02:57:21;;;;;;;9.60;5.40;;;;;;;9.04;77.85;100930.16;102370;280;113884;-56
2023/05/22 03:00:04;;;;;;;9.40;4.80;;;;;;;9.07;77.93;100930.58;102333;280;97100;-56
2023/05/22 03:02:45;;;;;;;8.80;5.50;;;;;;;9.10;77.94;100927.71;102368;280;98144;-53
2023/05/22 03:05:22;;;;;;;8.70;5.10;;;;;;;9.13;77.99;100928.66;102261;281;119562;-54
2023/05/22 03:08:01;;;;;;;7.60;5.40;;;;;;;9.22;77.98;100927.23;102376;280;105270;-54
2023/05/22 03:10:43;;;;;;;8.80;6.20;;;;;;;9.27;77.92;100925.61;102391;280;114699;-53
2023/05/22 03:13:23;;;;;;;8.30;5.30;;;;;;;9.33;77.99;100929.25;102336;284;97127;-53
2023/05/22 03:16:00;;;;;;;9.50;5.30;;;;;;;9.35;77.97;100927.91;102376;280;97386;-53
2023/05/22 03:18:41;;;;;;;8.20;5.00;;;;;;;9.40;78.05;100928.61;102361;280;119464;-55
2023/05/22 03:21:28;;;;;;;6.40;5.00;;;;;;;9.50;77.96;100928.07;102298;280;104230;-54
2023/05/22 03:24:04;;;;;;;7.70;5.00;;;;;;;9.61;78.07;100925.11;102307;280;114543;-54
2023/05/22 03:26:42;;;;;;;7.90;5.60;;;;;;;9.72;78.12;100926.18;102374;281;95643;-54
2023/05/22 03:29:26;;;;;;;8.90;5.30;;;;;;;9.83;78.06;100930.15;102375;280;97514;-55
2023/05/22 03:32:06;;;;;;;7.30;5.30;;;;;;;10.01;78.08;100927.77;102399;280;120114;-55
2023/05/22 03:34:51;;;;;;;12.20;6.20;;;;;;;10.20;77.98;100927.99;102374;280;105382;-55
2023/05/22 03:37:35;;;;;;;9.50;5.50;;;;;;;10.79;77.90;100924.70;102329;281;114431;-58
2023/05/22 03:40:15;;;;;;;9.80;5.70;;;;;;;12.39;76.82;100923.59;102334;280;96757;-55
2023/05/22 03:43:01;;;;;;;10.60;6.20;;;;;;;13.84;75.19;100918.14;102352;280;97160;-54
2023/05/22 03:45:42;;;;;;;10.40;5.50;;;;;;;15.07;73.41;100913.16;102373;280;121159;-54
2023/05/22 03:48:23;;;;;;;11.10;5.90;;;;;;;16.16;71.86;100916.23;102443;280;106145;-56
2023/05/22 03:51:04;;;;;;;7.10;5.40;;;;;;;17.05;69.94;100916.33;102388;281;113168;-58
2023/05/22 03:53:46;;;;;;;12.60;6.90;;;;;;;17.77;68.84;100913.59;102415;281;94041;-55
2023/05/22 03:56:27;;;;;;;14.20;6.00;;;;;;;18.66;67.62;100917.35;102430;280;97372;-56
2023/05/22 03:59:15;;;;;;;12.70;6.60;;;;;;;19.34;66.12;100916.15;102209;281;120805;-56
2023/05/22 04:01:59;;;;;;;11.20;5.80;;;;;;;20.13;63.85;100918.48;102227;281;104373;-57
2023/05/22 04:04:45;;;;;;;7.30;6.00;;;;;;;20.73;62.47;100920.91;102326;280;113949;-56
2023/05/22 04:07:24;;;;;;;10.70;6.70;;;;;;;21.26;60.58;100920.11;102294;280;94547;-56
2023/05/22 04:10:04;;;;;;;16.50;7.20;;;;;;;21.44;58.89;100910.84;102375;280;97471;-57
2023/05/22 04:12:46;;;;;;;10.30;6.70;;;;;;;21.19;58.13;100912.77;102377;296;121099;-56
2023/05/22 04:15:27;;;;;;;13.40;7.10;;;;;;;20.27;58.14;100912.91;102318;280;106257;-56
2023/05/22 04:18:06;;;;;;;10.70;7.30;;;;;;;19.24;58.56;100907.59;102289;280;113825;-55
2023/05/22 04:20:50;;;;;;;15.00;8.90;;;;;;;18.40;59.14;100910.77;102355;280;92591;-54
2023/05/22 04:23:37;;;;;;;13.40;8.90;;;;;;;17.81;59.67;100905.36;102353;280;98220;-56
2023/05/22 04:26:13;;;;;;;15.50;9.10;;;;;;;17.48;59.45;100901.13;102347;280;121262;-57
2023/05/22 04:28:51;;;;;;;14.00;9.40;;;;;;;17.30;59.49;100897.05;102353;280;104775;-54
2023/05/22 04:31:31;;;;;;;12.00;8.80;;;;;;;17.07;59.64;100898.60;102362;280;114388;-55
2023/05/22 04:34:14;;;;;;;11.30;8.60;;;;;;;16.96;59.68;100903.66;102401;280;94444;-57
2023/05/22 04:36:55;;;;;;;14.20;7.60;;;;;;;16.88;59.76;100903.23;102374;280;97543;-56
2023/05/22 04:39:51;;;;;;;10.10;7.90;;;;;;;16.85;59.92;100901.16;102321;280;121009;-54
2023/05/22 04:42:33;;;;;;;13.10;8.20;;;;;;;16.76;60.35;100900.19;102374;268;104411;-56
2023/05/22 04:45:12;;;;;;;11.40;7.40;;;;;;;16.73;60.34;100900.95;102403;280;115158;-56
2023/05/22 04:47:51;;;;;;;11.10;7.40;;;;;;;16.92;60.44;100901.20;102379;280;94772;-55
2023/05/22 04:50:31;;;;;;;13.80;9.80;;;;;;;18.20;59.66;100899.27;102381;280;96173;-56
2023/05/22 04:53:11;;;;;;;9.60;7.30;;;;;;;20.24;58.25;100894.27;102348;281;120085;-54
2023/05/22 04:55:48;;;;;;;13.50;7.50;;;;;;;22.39;56.37;100886.77;102348;281;104391;-54
2023/05/22 04:58:28;;;;;;;16.70;9.70;;;;;;;23.98;54.52;100887.49;102372;280;113412;-53
2023/05/22 05:01:09;;;;;;;13.10;7.60;;;;;;;25.18;52.45;100884.70;102442;280;94277;-55
2023/05/22 05:03:45;;;;;;;12.40;8.00;;;;;;;26.21;50.85;100880.23;102360;280;98250;-57
2023/05/22 05:06:24;;;;;;;12.50;8.10;;;;;;;27.05;48.88;100875.45;102359;281;119438;-57
2023/05/22 05:09:06;;;;;;;9.10;6.60;;;;;;;27.67;47.58;100880.88;102285;281;106771;-54
2023/05/22 05:11:46;;;;;;;9.40;7.30;;;;;;;27.70;46.42;100881.86;102379;280;114702;-55
2023/05/22 05:14:33;;;;;;;11.30;6.90;;;;;;;28.49;45.11;100884.36;102335;280;94890;-54
2023/05/22 05:17:14;;;;;;;11.60;6.70;;;;;;;29.09;43.73;100886.26;102386;281;96699;-56
2023/05/22 05:19:53;;;;;;;10.80;7.20;;;;;;;29.44;42.52;100881.64;102429;280;120906;-55
2023/05/22 05:22:36;;;;;;;12.20;6.40;;;;;;;29.38;41.38;100885.84;102404;280;105888;-57
2023/05/22 05:25:13;;;;;;;8.90;5.60;;;;;;;29.52;40.47;100888.96;102422;280;114290;-54
2023/05/22 05:27:57;;;;;;;8.40;5.60;;;;;;;30.13;39.45;100882.41;102379;280;93489;-55
2023/05/22 05:30:37;;;;;;;10.40;6.80;;;;;;;30.58;38.27;100883.50;102426;280;98616;-55
2023/05/22 05:33:14;;;;;;;8.30;5.80;;;;;;;30.26;37.96;100884.50;102371;280;121732;-56
2023/05/22 05:36:03;;;;;;;8.00;5.50;;;;;;;30.26;36.81;100882.71;102246;282;105671;-56
2023/05/22 05:38:58;;;;;;;6.70;5.20;;;;;;;29.93;36.22;100883.44;102399;280;114191;-57
2023/05/22 05:41:39;;;;;;;7.70;5.30;;;;;;;30.21;36.39;100882.91;102217;280;93846;-56
2023/05/22 05:44:26;;;;;;;7.40;5.40;;;;;;;30.54;35.36;100882.34;102231;280;96968;-56
2023/05/22 05:47:12;;;;;;;6.40;4.80;;;;;;;30.27;34.64;100883.51;102209;281;120493;-56
2023/05/22 05:49:50;;;;;;;8.40;5.50;;;;;;;29.10;34.66;100889.56;101789;281;632178;-55
2023/05/22 05:52:31;;;;;;;8.80;5.60;;;;;;;28.33;35.22;100887.60;102221;281;115157;-54
2023/05/22 05:55:12;;;;;;;8.40;4.80;;;;;;;28.11;35.81;100886.39;102295;281;94620;-55
2023/05/22 05:57:54;;;;;;;11.60;5.50;;;;;;;28.39;35.49;100887.64;102233;280;96727;-58
2023/05/22 06:00:41;;;;;;;11.60;5.50;;;;;;;28.86;35.58;100885.69;102146;282;119493;-58
2023/05/22 06:03:25;;;;;;;17.00;7.30;;;;;;;29.71;35.13;100882.19;102351;281;104761;-56
2023/05/22 06:06:06;;;;;;;6.80;5.10;;;;;;;29.66;35.20;100884.48;102306;281;114893;-56
2023/05/22 06:08:42;;;;;;;7.70;4.70;;;;;;;30.71;34.22;100874.50;102329;280;95222;-57
2023/05/22 06:11:23;;;;;;;7.30;4.90;;;;;;;31.60;33.81;100868.73;102280;280;97905;-56
2023/05/22 06:14:06;;;;;;;7.30;5.00;;;;;;;32.30;33.53;100867.15;102236;280;120965;-56
2023/05/22 06:16:49;;;;;;;9.10;4.70;;;;;;;32.68;32.38;100872.00;102251;281;106263;-54
2023/05/22 06:19:32;;;;;;;9.70;5.00;;;;;;;33.35;30.89;100869.26;102223;280;113599;-54
2023/05/22 06:22:24;;;;;;;7.70;4.90;;;;;;;33.24;30.48;100864.89;102229;280;95175;-54
2023/05/22 06:25:06;;;;;;;10.80;4.60;;;;;;;33.57;30.67;100862.81;102281;280;96822;-56
2023/05/22 06:27:44;;;;;;;5.80;4.30;;;;;;;34.40;30.13;100859.79;102242;280;120860;-54
2023/05/22 06:30:25;;;;;;;7.40;4.50;;;;;;;35.21;29.08;100859.33;102239;280;105036;-54
2023/05/22 06:33:03;;;;;;;7.80;4.90;;;;;;;35.27;29.11;100855.46;102245;280;113755;-55
2023/05/22 06:35:48;;;;;;;9.20;4.80;;;;;;;35.33;28.60;100853.36;102244;280;93134;-53
2023/05/22 06:38:33;;;;;;;8.00;4.40;;;;;;;35.70;28.37;100851.05;102246;280;96606;-56
2023/05/22 06:41:11;;;;;;;5.00;4.20;;;;;;;35.64;28.12;100853.56;102352;280;119763;-56
2023/05/22 06:43:50;;;;;;;7.70;4.70;;;;;;;35.53;28.00;100852.60;102406;280;105202;-54
2023/05/22 06:46:27;;;;;;;7.30;4.50;;;;;;;35.86;27.96;100856.21;102334;280;115265;-55
2023/05/22 06:49:05;;;;;;;8.50;4.50;;;;;;;35.84;27.71;100854.70;102347;280;93253;-56
2023/05/22 06:51:49;;;;;;;9.80;4.50;;;;;;;35.86;26.97;100854.55;102367;280;97012;-58
2023/05/22 06:54:33;;;;;;;8.40;4.40;;;;;;;35.81;26.71;100854.02;102350;280;119996;-59
2023/05/22 06:57:16;;;;;;;9.00;4.90;;;;;;;36.16;26.27;100847.02;102371;280;104678;-57
2023/05/22 06:59:54;;;;;;;7.00;4.60;;;;;;;36.42;26.69;100847.34;102335;280;115011;-58
2023/05/22 07:02:34;;;;;;;9.10;4.70;;;;;;;36.52;26.58;100844.55;102364;280;93399;-57
2023/05/22 07:05:17;;;;;;;9.50;4.20;;;;;;;36.29;26.10;100841.45;102339;280;96140;-58
2023/05/22 07:07:56;;;;;;;8.50;4.10;;;;;;;36.02;25.82;100839.06;102312;280;121708;-56
2023/05/22 07:10:32;;;;;;;6.30;4.00;;;;;;;36.05;25.93;100843.98;102364;280;106087;-56
2023/05/22 07:13:12;;;;;;;7.00;4.30;;;;;;;35.84;25.69;100841.83;102372;281;114432;-58
2023/05/22 07:15:54;;;;;;;11.20;4.50;;;;;;;35.82;25.48;100838.73;102448;280;93039;-57
2023/05/22 07:18:35;;;;;;;7.70;4.00;;;;;;;36.11;25.08;100839.63;102407;280;97767;-55
2023/05/22 07:21:22;;;;;;;7.50;4.30;;;;;;;35.93;24.26;100839.11;102411;280;119212;-58
2023/05/22 07:24:07;;;;;;;7.80;4.50;;;;;;;36.32;24.20;100834.13;102363;280;104806;-57
2023/05/22 07:26:46;;;;;;;7.90;4.30;;;;;;;36.38;24.04;100834.23;102356;280;113995;-53
2023/05/22 07:29:25;;;;;;;12.60;4.20;;;;;;;36.58;23.91;100831.69;102357;280;94198;-54
2023/05/22 07:32:08;;;;;;;7.40;3.90;;;;;;;36.34;24.04;100832.58;102389;280;97967;-57
2023/05/22 07:34:50;;;;;;;7.40;3.70;;;;;;;35.99;23.58;100836.84;102330;280;120162;-57
2023/05/22 07:37:31;;;;;;;8.90;3.30;;;;;;;36.19;23.25;100834.73;102358;281;106004;-56
2023/05/22 07:40:10;;;;;;;9.90;3.10;;;;;;;36.34;22.74;100832.35;102344;280;114539;-57
2023/05/22 07:42:50;;;;;;;6.90;3.30;;;;;;;36.27;22.40;100830.58;102348;280;94666;-57
2023/05/22 07:45:31;;;;;;;5.00;3.40;;;;;;;35.64;22.75;100833.39;102423;280;99188;-58
2023/05/22 07:48:10;;;;;;;5.10;2.90;;;;;;;35.50;22.85;100829.92;102416;280;121051;-56
2023/05/22 07:50:47;;;;;;;3.80;2.60;;;;;;;35.74;21.45;100826.95;102385;281;106017;-56
2023/05/22 07:53:26;;;;;;;4.10;2.30;;;;;;;35.11;21.60;100825.27;102402;280;113429;-55
2023/05/22 07:56:03;;;;;;;3.90;2.60;;;;;;;34.46;21.98;100820.66;102407;280;93458;-56
2023/05/22 07:58:48;;;;;;;7.20;2.90;;;;;;;33.91;22.56;100821.11;102377;280;97431;-56
2023/05/22 08:01:29;;;;;;;3.80;2.10;;;;;;;33.41;22.03;100822.85;102375;280;120022;-55
2023/05/22 08:04:04;;;;;;;3.90;2.30;;;;;;;32.48;22.39;100824.01;102343;281;104884;-57
2023/05/22 08:06:46;;;;;;;4.00;2.50;;;;;;;32.09;22.47;100823.30;102340;281;113840;-57
2023/05/22 08:09:27;;;;;;;2.80;2.00;;;;;;;32.39;22.83;100829.53;102319;280;93724;-56
2023/05/22 08:12:05;;;;;;;3.80;2.30;;;;;;;32.80;22.50;100827.92;102418;280;97730;-56
2023/05/22 08:14:40;;;;;;;3.80;2.20;;;;;;;33.13;22.25;100829.52;102356;280;120181;-55
2023/05/22 08:17:24;;;;;;;5.40;2.20;;;;;;;33.50;22.25;100823.34;102323;280;104026;-57
2023/05/22 08:20:06;;;;;;;5.00;2.40;;;;;;;33.94;22.00;100822.13;102325;280;114354;-57
2023/05/22 08:22:42;;;;;;;4.30;2.50;;;;;;;34.15;21.99;100818.89;102385;280;93878;-55
2023/05/22 08:25:18;;;;;;;6.60;2.60;;;;;;;34.52;21.81;100814.08;102400;280;96704;-56
2023/05/22 08:27:55;;;;;;;6.20;2.30;;;;;;;34.61;21.73;100809.98;102341;280;120616;-58
2023/05/22 08:30:40;;;;;;;4.00;2.40;;;;;;;34.87;22.15;100809.83;102393;281;104786;-58
2023/05/22 08:33:23;;;;;;;3.80;2.50;;;;;;;35.17;21.52;100812.93;102381;280;113714;-57
2023/05/22 08:36:04;;;;;;;4.60;2.10;;;;;;;35.57;20.91;100812.27;102392;280;95233;-57
2023/05/22 08:38:43;;;;;;;5.40;2.60;;;;;;;35.24;20.87;100812.77;102403;281;97075;-59
2023/05/22 08:41:29;;;;;;;3.90;2.60;;;;;;;34.58;21.18;100808.31;102337;268;120526;-60
2023/05/22 08:44:09;;;;;;;3.00;1.70;;;;;;;34.39;21.27;100809.32;102321;280;104408;-58
2023/05/22 08:46:52;;;;;;;3.20;1.70;;;;;;;34.57;21.69;100811.97;102340;280;115062;-58
2023/05/22 08:49:31;;;;;;;2.60;1.80;;;;;;;34.71;21.15;100810.96;102350;280;94259;-58
2023/05/22 08:52:11;;;;;;;2.80;1.60;;;;;;;34.67;21.04;100804.22;102380;280;96412;-57
2023/05/22 08:54:52;;;;;;;3.20;2.10;;;;;;;34.82;20.73;100804.09;102326;280;120735;-65
2023/05/22 08:57:30;;;;;;;4.60;2.10;;;;;;;34.28;20.34;100799.96;102329;280;105841;-58
2023/05/22 09:00:08;;;;;;;4.10;1.90;;;;;;;34.13;20.83;100799.48;102366;308;114449;-57
2023/05/22 09:02:47;;;;;;;2.50;1.90;;;;;;;33.42;21.45;100801.29;102381;281;94058;-55
2023/05/22 09:05:26;;;;;;;2.10;1.80;;;;;;;32.44;22.05;100802.67;102361;280;96591;-54
2023/05/22 09:08:12;;;;;;;2.50;1.60;;;;;;;31.55;22.46;100799.70;102407;280;120597;-57
2023/05/22 09:10:53;;;;;;;3.80;2.30;;;;;;;31.03;22.34;100802.40;102354;280;107137;-56
2023/05/22 09:13:33;;;;;;;3.70;2.50;;;;;;;30.86;22.59;100803.19;102343;280;114884;-55
2023/05/22 09:16:14;;;;;;;4.20;2.60;;;;;;;30.73;22.34;100800.64;102340;280;93680;-56
2023/05/22 09:18:57;;;;;;;6.10;2.10;;;;;;;30.55;22.68;100793.23;102368;281;96494;-56
2023/05/22 09:21:36;;;;;;;5.10;2.20;;;;;;;29.99;23.09;100793.60;102371;280;119981;-57
2023/05/22 09:24:20;;;;;;;6.50;2.50;;;;;;;29.23;23.40;100794.11;102369;280;104363;-58
2023/05/22 09:27:07;;;;;;;2.60;2.10;;;;;;;28.66;24.16;100795.40;102288;280;114208;-57
2023/05/22 09:29:55;;;;;;;3.40;2.10;;;;;;;28.45;25.12;100792.06;102361;280;94986;-59
2023/05/22 09:32:38;;;;;;;6.40;2.60;;;;;;;28.24;25.23;100790.17;102400;280;97800;-56
2023/05/22 09:35:14;;;;;;;4.00;2.40;;;;;;;28.01;25.46;100793.48;102402;280;121351;-58
2023/05/22 09:37:59;;;;;;;4.40;2.70;;;;;;;27.60;25.67;100788.58;102411;280;105594;-56
2023/05/22 09:40:46;;;;;;;6.00;2.40;;;;;;;27.45;26.71;100783.22;102352;281;114176;-55
2023/05/22 09:43:24;;;;;;;3.60;2.10;;;;;;;27.35;28.19;100785.06;102369;280;93483;-57
2023/05/22 09:46:05;;;;;;;4.40;2.40;;;;;;;27.32;28.14;100780.20;102383;280;97823;-57
2023/05/22 09:48:45;;;;;;;4.30;2.90;;;;;;;27.45;27.42;100780.21;102408;280;120553;-55
2023/05/22 09:51:26;;;;;;;5.90;2.50;;;;;;;27.37;27.10;100779.32;102334;280;104729;-55
2023/05/22 09:54:11;;;;;;;4.10;2.10;;;;;;;27.36;27.48;100775.27;102347;280;114364;-58
2023/05/22 09:56:52;;;;;;;4.00;2.10;;;;;;;27.33;27.46;100777.29;102364;280;93850;-56
2023/05/22 09:59:39;;;;;;;4.30;2.30;;;;;;;27.17;27.54;100774.44;102390;280;97136;-56
2023/05/22 10:02:17;;;;;;;3.10;2.40;;;;;;;27.12;28.15;100778.64;102375;280;119897;-57
2023/05/22 10:04:57;;;;;;;2.80;2.20;;;;;;;27.21;28.20;100775.63;102396;280;106081;-57
2023/05/22 10:07:47;;;;;;;4.40;2.40;;;;;;;27.28;27.73;100776.00;102376;281;115069;-54
2023/05/22 10:10:25;;;;;;;3.50;2.10;;;;;;;27.20;27.27;100773.34;102387;280;92186;-52
2023/05/22 10:13:07;;;;;;;4.50;2.20;;;;;;;27.03;27.40;100773.77;102395;280;98147;-56
2023/05/22 10:15:44;;;;;;;4.10;2.30;;;;;;;27.03;27.42;100775.94;102382;280;120130;-56
2023/05/22 10:18:23;;;;;;;5.80;2.80;;;;;;;26.89;27.70;100775.48;102385;281;104031;-56
2023/05/22 10:21:04;;;;;;;3.60;2.40;;;;;;;26.94;27.91;100772.51;102365;268;114461;-56
2023/05/22 10:23:44;;;;;;;4.90;2.30;;;;;;;26.89;28.24;100768.30;102228;281;94352;-55
2023/05/22 10:26:28;;;;;;;4.10;2.30;;;;;;;26.86;28.69;100768.23;102426;280;96984;-55
2023/05/22 10:29:14;;;;;;;4.40;2.40;;;;;;;26.74;28.75;100763.14;102382;280;120596;-57
2023/05/22 10:32:01;;;;;;;4.40;2.40;;;;;;;26.57;28.55;100763.58;102369;280;105337;-56
2023/05/22 10:34:54;;;;;;;3.80;2.40;;;;;;;26.76;28.77;100762.19;102330;280;114870;-56
2023/05/22 10:37:46;;;;;;;3.60;2.40;;;;;;;26.94;28.08;100761.86;102365;280;95324;-56
2023/05/22 10:40:34;;;;;;;4.10;2.60;;;;;;;27.04;28.16;100760.12;102370;280;97252;-56
2023/05/22 10:43:08;;;;;;;2.90;2.50;;;;;;;27.13;28.24;100756.67;102393;280;118645;-57
2023/05/22 10:46:02;;;;;;;2.90;2.20;;;;;;;27.41;28.05;100755.88;102357;280;103907;-56
2023/05/22 10:48:48;;;;;;;3.00;2.20;;;;;;;27.80;27.85;100752.15;102433;276;113793;-54
2023/05/22 10:51:27;;;;;;;4.90;2.60;;;;;;;27.80;28.17;100750.70;102394;280;93398;-54
2023/05/22 10:54:04;;;;;;;6.50;2.40;;;;;;;27.73;27.58;100751.90;102396;280;97413;-58
2023/05/22 10:56:41;;;;;;;2.50;2.30;;;;;;;27.75;27.21;100749.93;102362;280;120271;-55
2023/05/22 10:59:20;;;;;;;3.90;1.80;;;;;;;27.74;27.15;100743.27;102391;280;106245;-55
2023/05/22 11:02:18;;;;;;;3.00;2.40;;;;;;;27.63;27.37;100744.17;102319;280;115147;-55
2023/05/22 11:05:29;;;;;;;6.80;2.30;;;;;;;27.59;26.70;100740.66;102362;280;95145;-56
2023/05/22 11:08:46;;;;;;;2.70;2.20;;;;;;;27.68;26.83;100741.28;102232;282;96837;-65
2023/05/22 11:11:27;;;;;;;5.60;2.50;;;;;;;27.53;27.01;100734.95;102376;280;121149;-59
2023/05/22 11:14:08;;;;;;;4.20;2.30;;;;;;;27.57;27.15;100732.19;102365;280;106397;-57
2023/05/22 11:17:01;;;;;;;3.20;1.90;;;;;;;27.71;27.09;100727.31;102413;280;113861;-61
2023/05/22 11:19:42;;;;;;;3.10;2.20;;;;;;;27.58;27.42;100723.26;102339;280;94599;-62
2023/05/22 11:22:21;;;;;;;3.70;2.40;;;;;;;27.19;27.24;100720.27;102351;281;97202;-63
2023/05/22 11:25:01;;;;;;;3.30;2.10;;;;;;;26.89;26.70;100720.23;102396;268;119926;-62
2023/05/22 11:27:42;;;;;;;5.40;2.80;;;;;;;26.55;26.79;100714.48;102405;280;105693;-63
2023/05/22 11:30:30;;;;;;;4.40;2.50;;;;;;;26.40;27.13;100713.36;102340;281;115036;-64
2023/05/22 11:33:06;;;;;;;3.50;2.00;;;;;;;26.59;27.55;100711.56;102369;280;93951;-63
2023/05/22 11:35:44;;;;;;;3.30;1.90;;;;;;;26.59;27.04;100714.39;102473;280;97985;-61
2023/05/22 11:38:28;;;;;;;2.90;2.20;;;;;;;26.58;27.00;100707.97;102394;280;118815;-61
2023/05/22 11:41:15;;;;;;;3.20;2.20;;;;;;;26.67;27.00;100708.95;102346;280;105868;-59
2023/05/22 11:43:52;;;;;;;3.60;2.20;;;;;;;26.62;26.90;100712.20;102351;280;113655;-59
2023/05/22 11:46:39;;;;;;;4.10;2.20;;;;;;;26.65;27.09;100707.80;102376;280;94517;-61
2023/05/22 11:49:29;;;;;;;3.30;2.40;;;;;;;26.62;26.84;100708.10;102350;280;95793;-62
2023/05/22 11:52:13;;;;;;;3.30;2.50;;;;;;;26.51;26.84;100708.46;102375;280;121675;-61
2023/05/22 11:54:49;;;;;;;3.10;2.40;;;;;;;26.28;26.75;100703.33;102323;280;105705;-61
2023/05/22 11:57:28;;;;;;;3.80;2.50;;;;;;;26.36;26.98;100704.61;102314;280;113707;-60
2023/05/22 12:00:11;;;;;;;2.80;2.10;;;;;;;26.51;27.07;100701.04;102365;280;93882;-60
2023/05/22 12:02:54;;;;;;;3.70;2.20;;;;;;;26.52;27.01;100696.48;102391;280;97962;-63
2023/05/22 12:05:38;;;;;;;2.90;2.20;;;;;;;26.35;27.28;100692.16;102146;280;120662;-63
2023/05/22 12:08:20;;;;;;;3.90;2.50;;;;;;;26.41;27.20;100691.34;102384;280;105236;-64
2023/05/22 12:10:59;;;;;;;2.70;2.10;;;;;;;26.55;27.38;100691.70;102376;280;113465;-61
2023/05/22 12:13:43;;;;;;;4.90;2.00;;;;;;;26.59;27.20;100690.78;102421;280;94793;-62
2023/05/22 12:16:27;;;;;;;3.20;2.40;;;;;;;26.71;27.03;100687.48;102351;281;97962;-61
2023/05/22 12:19:07;;;;;;;;;;;;;;;26.67;27.13;100684.73;102404;280;119836;-63
2023/05/22 12:21:51;;;;;;;3.70;2.20;;;;;;;26.74;27.22;100679.65;102382;281;105746;-62
2023/05/22 12:24:45;;;;;;;3.70;2.20;;;;;;;26.86;27.36;100677.30;102374;281;113895;-61
2023/05/22 12:27:32;;;;;;;3.80;2.30;;;;;;;26.90;27.55;100671.61;102430;280;92076;-62